createdAt,value
2019-02-18T00:02:01.661Z,1.80
2019-02-18T00:06:05.092Z,1.90
2019-02-18T00:10:08.589Z,1.90
2019-02-18T00:14:12.017Z,1.80
2019-02-18T00:18:15.594Z,1.80
2019-02-18T00:22:19.019Z,1.80
2019-02-18T00:26:22.548Z,1.80
2019-02-18T00:30:27.815Z,1.70
2019-02-18T00:34:31.312Z,1.60
2019-02-18T00:38:35.908Z,1.30
2019-02-18T00:42:39.522Z,1.10
2019-02-18T00:46:43.049Z,1.10
2019-02-18T00:50:46.687Z,1.20
2019-02-18T00:54:50.401Z,1.10
2019-02-18T00:58:53.878Z,1.00
2019-02-18T01:02:57.386Z,0.90
2019-02-18T01:07:00.842Z,0.80
2019-02-18T01:11:08.855Z,0.80
2019-02-18T01:15:14.308Z,0.90
2019-02-18T01:19:19.841Z,0.90
2019-02-18T01:23:23.077Z,1.00
2019-02-18T01:27:26.519Z,0.70
2019-02-18T01:31:30.034Z,0.70
2019-02-18T01:35:33.709Z,0.80
2019-02-18T01:39:37.325Z,0.90
2019-02-18T01:43:44.950Z,0.90
2019-02-18T01:47:48.542Z,0.70
2019-02-18T01:51:51.919Z,0.50
2019-02-18T01:55:55.420Z,0.30
2019-02-18T01:59:59.075Z,0.40
2019-02-18T02:04:02.697Z,0.40
2019-02-18T02:08:06.302Z,0.60
2019-02-18T02:12:10.094Z,0.60
2019-02-18T02:16:13.697Z,0.60
2019-02-18T02:20:21.806Z,0.50
2019-02-18T02:24:22.597Z,0.40
2019-02-18T02:28:26.185Z,0.40
2019-02-18T02:32:29.871Z,0.50
2019-02-18T02:36:33.373Z,0.60
2019-02-18T02:40:36.779Z,0.60
2019-02-18T02:44:40.292Z,0.40
2019-02-18T02:48:43.788Z,0.20
2019-02-18T02:52:47.386Z,0.20
2019-02-18T02:56:50.855Z,0.20
2019-02-18T03:00:54.646Z,0.20
2019-02-18T03:04:58.085Z,0.00
2019-02-18T03:09:01.527Z,-0.20
2019-02-18T03:13:04.956Z,-0.20
2019-02-18T03:17:08.757Z,-0.20
2019-02-18T03:21:14.365Z,-0.10
2019-02-18T03:25:24.891Z,0.00
2019-02-18T03:29:47.885Z,0.10
2019-02-18T03:33:59.220Z,0.20
2019-02-18T03:38:02.979Z,0.30
2019-02-18T03:42:06.501Z,0.30
2019-02-18T03:46:09.964Z,0.50
2019-02-18T03:50:13.403Z,0.90
2019-02-18T03:54:16.918Z,1.20
2019-02-18T03:58:20.378Z,1.30
2019-02-18T04:02:28.513Z,1.60
2019-02-18T04:06:34.311Z,1.70
2019-02-18T04:10:39.771Z,1.60
2019-02-18T04:14:52.080Z,1.50
2019-02-18T04:18:55.158Z,1.50
2019-02-18T04:22:58.704Z,1.50
2019-02-18T04:27:02.234Z,1.50
2019-02-18T04:31:05.787Z,1.40
2019-02-18T04:35:13.844Z,1.20
2019-02-18T04:39:17.316Z,1.10
2019-02-18T04:43:20.969Z,0.80
2019-02-18T04:47:24.645Z,0.60
2019-02-18T04:51:28.277Z,0.50
2019-02-18T04:55:32.936Z,0.30
2019-02-18T04:59:36.565Z,0.20
2019-02-18T05:03:40.027Z,0.10
2019-02-18T05:07:43.476Z,0.10
2019-02-18T05:11:47.083Z,0.10
2019-02-18T05:15:50.599Z,0.10
2019-02-18T05:19:54.106Z,0.10
2019-02-18T05:23:57.678Z,0.00
2019-02-18T05:28:01.226Z,-0.10
2019-02-18T05:32:05.048Z,-0.10
2019-02-18T05:36:08.560Z,-0.20
2019-02-18T05:40:12.099Z,-0.20
2019-02-18T05:44:15.621Z,-0.20
2019-02-18T05:48:19.159Z,-0.10
2019-02-18T05:52:22.582Z,0.00
2019-02-18T05:56:26.118Z,0.00
2019-02-18T06:00:29.690Z,-0.10
2019-02-18T06:04:33.613Z,-0.40
2019-02-18T06:08:37.160Z,-0.50
2019-02-18T06:12:40.982Z,-0.50
2019-02-18T06:16:44.561Z,-0.40
2019-02-18T06:20:48.079Z,-0.30
2019-02-18T06:24:51.617Z,-0.20
2019-02-18T06:28:55.087Z,-0.20
2019-02-18T06:33:00.999Z,-0.20
2019-02-18T06:37:03.666Z,-0.10
2019-02-18T06:41:07.098Z,-0.20
2019-02-18T06:45:12.191Z,-0.10
2019-02-18T06:49:16.214Z,0.10
2019-02-18T06:53:19.710Z,0.70
2019-02-18T06:57:24.790Z,1.10
2019-02-18T07:01:32.863Z,1.80
2019-02-18T07:05:40.334Z,2.90
2019-02-18T07:09:53.991Z,5.00
2019-02-18T07:13:57.430Z,6.40
2019-02-18T07:18:00.858Z,7.60
2019-02-18T07:22:04.303Z,8.10
2019-02-18T07:26:07.766Z,7.70
2019-02-18T07:30:13.087Z,7.90
2019-02-18T07:34:16.541Z,7.70
2019-02-18T07:38:19.993Z,6.50
2019-02-18T07:42:23.463Z,5.10
2019-02-18T07:46:26.923Z,4.90
2019-02-18T07:50:30.388Z,5.70
2019-02-18T07:54:33.848Z,6.50
2019-02-18T07:58:37.282Z,6.60
2019-02-18T08:02:40.852Z,6.90
2019-02-18T08:06:44.318Z,6.70
2019-02-18T08:10:47.794Z,7.50
2019-02-18T08:14:51.224Z,9.40
2019-02-18T08:18:54.662Z,10.20
2019-02-18T08:22:58.095Z,10.10
2019-02-18T08:27:01.532Z,9.60
2019-02-18T08:31:05.289Z,10.40
2019-02-18T08:35:08.862Z,11.60
2019-02-18T08:39:12.430Z,12.10
2019-02-18T08:43:15.897Z,12.10
2019-02-18T08:47:19.700Z,12.10
2019-02-18T08:51:23.266Z,11.80
2019-02-18T08:55:26.712Z,11.30
2019-02-18T08:59:30.252Z,11.70
2019-02-18T09:03:33.657Z,12.40
2019-02-18T09:07:37.187Z,11.40
2019-02-18T09:11:40.651Z,11.50
2019-02-18T09:15:44.133Z,11.70
2019-02-18T09:19:47.570Z,13.10
2019-02-18T09:23:52.640Z,16.70
2019-02-18T09:27:56.076Z,19.90
2019-02-18T09:31:59.817Z,20.90
2019-02-18T09:36:03.338Z,19.10
2019-02-18T09:40:09.637Z,15.90
2019-02-18T09:44:13.202Z,13.50
2019-02-18T09:48:16.645Z,12.70
2019-02-18T09:52:20.125Z,13.20
2019-02-18T09:56:23.629Z,14.10
2019-02-18T10:00:27.142Z,14.30
2019-02-18T10:04:30.596Z,14.60
2019-02-18T10:08:34.032Z,16.40
2019-02-18T10:12:37.482Z,20.90
2019-02-18T10:16:40.972Z,23.20
2019-02-18T10:20:44.462Z,24.40
2019-02-18T10:24:50.696Z,25.80
2019-02-18T10:28:53.331Z,25.80
2019-02-18T10:32:56.693Z,26.20
2019-02-18T10:37:00.234Z,26.00
2019-02-18T10:41:06.995Z,26.30
2019-02-18T10:45:11.167Z,27.20
2019-02-18T10:49:19.751Z,26.70
2019-02-18T10:53:19.704Z,27.00
2019-02-18T10:57:23.184Z,28.00
2019-02-18T11:01:26.947Z,26.80
2019-02-18T11:05:30.410Z,27.20
2019-02-18T11:09:34.273Z,28.00
2019-02-18T11:13:37.704Z,27.40
2019-02-18T11:17:41.181Z,27.70
2019-02-18T11:21:44.656Z,26.50
2019-02-18T11:25:48.206Z,23.80
2019-02-18T11:29:51.683Z,19.90
2019-02-18T11:33:55.119Z,17.10
2019-02-18T11:37:58.616Z,15.60
2019-02-18T11:42:02.046Z,15.10
2019-02-18T11:46:05.474Z,14.80
2019-02-18T11:50:14.508Z,15.10
2019-02-18T11:54:18.057Z,14.90
2019-02-18T11:58:21.704Z,14.80
2019-02-18T12:02:25.338Z,14.90
2019-02-18T12:06:28.853Z,15.00
2019-02-18T12:10:32.627Z,14.90
2019-02-18T12:14:36.079Z,15.00
2019-02-18T12:18:39.547Z,15.10
2019-02-18T12:22:43.041Z,14.80
2019-02-18T12:26:46.812Z,15.00
2019-02-18T12:30:50.320Z,15.10
2019-02-18T12:34:53.759Z,15.30
2019-02-18T12:38:57.219Z,15.50
2019-02-18T12:43:00.965Z,15.40
2019-02-18T12:47:06.421Z,15.40
2019-02-18T12:51:10.035Z,15.50
2019-02-18T12:55:13.486Z,15.30
2019-02-18T12:59:16.975Z,15.20
2019-02-18T13:03:20.425Z,15.20
2019-02-18T13:07:23.861Z,15.20
2019-02-18T13:11:27.303Z,15.10
2019-02-18T13:15:30.937Z,15.10
2019-02-18T13:19:34.395Z,15.30
2019-02-18T13:23:38.049Z,15.40
2019-02-18T13:27:41.495Z,15.40
2019-02-18T13:31:44.945Z,15.40
2019-02-18T13:35:48.809Z,15.40
2019-02-18T13:39:52.322Z,15.20
2019-02-18T13:43:55.776Z,15.20
2019-02-18T13:47:59.251Z,15.20
2019-02-18T13:52:02.810Z,15.10
2019-02-18T13:56:06.526Z,15.20
2019-02-18T14:00:21.077Z,15.10
2019-02-18T14:04:24.633Z,15.20
2019-02-18T14:08:28.530Z,15.00
2019-02-18T14:12:32.041Z,14.90
2019-02-18T14:16:35.468Z,14.90
2019-02-18T14:20:38.926Z,14.80
2019-02-18T14:24:42.383Z,14.70
2019-02-18T14:28:45.865Z,14.60
2019-02-18T14:32:49.305Z,14.30
2019-02-18T14:36:52.912Z,14.20
2019-02-18T14:40:56.350Z,14.10
2019-02-18T14:44:59.814Z,14.10
2019-02-18T14:49:03.281Z,13.90
2019-02-18T14:53:06.745Z,13.80
2019-02-18T14:57:10.178Z,13.80
2019-02-18T15:01:13.900Z,13.60
2019-02-18T15:05:17.448Z,13.50
2019-02-18T15:09:21.573Z,13.40
2019-02-18T15:13:25.036Z,13.30
2019-02-18T15:17:28.635Z,13.20
2019-02-18T15:21:32.055Z,13.10
2019-02-18T15:25:35.527Z,12.90
2019-02-18T15:29:39.066Z,12.80
2019-02-18T15:33:42.510Z,12.60
2019-02-18T15:37:45.953Z,12.50
2019-02-18T15:41:49.395Z,12.30
2019-02-18T15:45:53.851Z,12.20
2019-02-18T15:49:57.323Z,12.10
2019-02-18T15:54:01.363Z,11.90
2019-02-18T15:58:04.781Z,11.60
2019-02-18T16:02:09.070Z,11.20
2019-02-18T16:06:12.872Z,11.10
2019-02-18T16:10:16.447Z,10.80
2019-02-18T16:14:20.048Z,10.40
2019-02-18T16:18:23.621Z,10.00
2019-02-18T16:22:27.240Z,9.70
2019-02-18T16:26:30.782Z,9.50
2019-02-18T16:30:35.998Z,9.20
2019-02-18T16:34:39.505Z,8.90
2019-02-18T16:38:43.365Z,8.60
2019-02-18T16:42:46.822Z,8.40
2019-02-18T16:46:50.390Z,8.20
2019-02-18T16:50:53.908Z,8.00
2019-02-18T16:54:57.340Z,7.80
2019-02-18T16:59:00.924Z,7.30
2019-02-18T17:03:04.502Z,6.90
2019-02-18T17:07:07.961Z,6.70
2019-02-18T17:11:11.564Z,6.70
2019-02-18T17:15:15.004Z,6.60
2019-02-18T17:19:18.461Z,6.50
2019-02-18T17:23:21.912Z,6.30
2019-02-18T17:27:25.609Z,6.20
2019-02-18T17:31:29.049Z,6.10
2019-02-18T17:35:32.632Z,6.00
2019-02-18T17:39:36.209Z,5.90
2019-02-18T17:43:39.819Z,5.80
2019-02-18T17:47:43.730Z,5.60
2019-02-18T17:51:47.268Z,5.30
2019-02-18T17:55:51.107Z,5.00
2019-02-18T17:59:54.530Z,4.90
2019-02-18T18:03:58.196Z,4.80
2019-02-18T18:08:01.813Z,4.80
2019-02-18T18:12:05.563Z,4.70
2019-02-18T18:16:09.137Z,4.70
2019-02-18T18:20:13.836Z,4.70
2019-02-18T18:24:17.550Z,4.70
2019-02-18T18:28:20.988Z,4.70
2019-02-18T18:32:24.455Z,4.60
2019-02-18T18:36:27.893Z,4.50
2019-02-18T18:40:33.261Z,4.40
2019-02-18T18:44:36.909Z,4.40
2019-02-18T18:48:40.544Z,4.30
2019-02-18T19:01:32.167Z,4.20
2019-02-18T19:05:35.637Z,4.20
2019-02-18T19:09:39.067Z,4.20
2019-02-18T19:13:42.531Z,4.20
2019-02-18T19:17:45.964Z,4.20
2019-02-18T19:21:49.847Z,4.10
2019-02-18T19:25:53.476Z,3.90
2019-02-18T19:29:57.116Z,3.70
2019-02-18T19:34:00.737Z,3.60
2019-02-18T19:38:04.337Z,3.60
2019-02-18T19:42:08.235Z,3.60
2019-02-18T19:46:11.910Z,3.50
2019-02-18T19:50:15.825Z,3.10
2019-02-18T19:54:20.567Z,2.80
2019-02-18T19:58:24.471Z,2.90
2019-02-18T20:02:27.974Z,3.00
2019-02-18T20:06:31.380Z,3.10
2019-02-18T20:10:35.042Z,3.10
2019-02-18T20:14:38.807Z,3.30
2019-02-18T20:18:42.588Z,3.50
2019-02-18T20:22:46.273Z,3.70
2019-02-18T20:26:49.844Z,4.10
2019-02-18T20:30:53.451Z,4.30
2019-02-18T20:34:57.135Z,4.40
2019-02-18T20:39:01.030Z,4.50
2019-02-18T20:43:05.124Z,4.50
2019-02-18T20:47:09.148Z,4.50
2019-02-18T20:51:12.573Z,4.60
2019-02-18T20:55:16.376Z,4.70
2019-02-18T20:59:19.986Z,4.80
2019-02-18T21:03:23.497Z,5.00
2019-02-18T21:07:27.149Z,5.10
2019-02-18T21:11:30.626Z,5.20
2019-02-18T21:15:34.172Z,5.40
2019-02-18T21:19:38.874Z,5.60
2019-02-18T21:23:42.389Z,5.70
2019-02-18T21:27:45.988Z,5.80
2019-02-18T21:31:49.562Z,6.20
2019-02-18T21:35:56.016Z,6.80
2019-02-18T21:39:59.573Z,7.10
2019-02-18T21:44:03.022Z,7.00
2019-02-18T21:48:06.523Z,6.90
2019-02-18T21:52:10.135Z,6.60
2019-02-18T21:56:13.686Z,6.50
2019-02-18T22:00:21.278Z,6.30
2019-02-18T22:04:24.696Z,6.10
2019-02-18T22:08:28.135Z,5.90
2019-02-18T22:12:31.830Z,5.80
2019-02-18T22:16:35.241Z,5.70
2019-02-18T22:20:39.108Z,5.60
2019-02-18T22:24:42.503Z,5.50
2019-02-18T22:28:46.225Z,5.50
2019-02-18T22:32:49.656Z,5.60
2019-02-18T22:36:53.400Z,5.50
2019-02-18T22:40:56.883Z,5.60
2019-02-18T22:45:00.366Z,5.70
2019-02-18T22:49:03.776Z,5.70
2019-02-18T22:53:07.225Z,5.70
2019-02-18T22:57:10.661Z,5.70
2019-02-18T23:01:14.171Z,5.70
2019-02-18T23:05:17.670Z,5.70
2019-02-18T23:09:21.029Z,5.80
2019-02-18T23:13:24.489Z,5.80
2019-02-18T23:17:27.925Z,5.90
2019-02-18T23:21:31.369Z,5.90
2019-02-18T23:25:34.786Z,6.20
2019-02-18T23:29:38.252Z,6.40
2019-02-18T23:33:41.673Z,6.60
2019-02-18T23:37:45.099Z,6.50
2019-02-18T23:41:48.669Z,6.60
2019-02-18T23:45:53.904Z,6.60
2019-02-18T23:49:59.219Z,6.60
2019-02-18T23:54:02.788Z,6.40
2019-02-18T23:58:06.313Z,6.40
